Time;durP1;ratioP1;P1;durP2;ratioP2;P2;SDS_P1;SDS_P2;PMS_P1;PMS_P2;Temp;Humidity;BMP_temperature;BMP_pressure;BME280_temperature;BME280_humidity;BME280_pressure;Samples;Min_cycle;Max_cycle;Signal;HPM_P1;HPM_P2
2022/08/18 00:02:04;;;;;;;;;;;21.10;74.90;;;;;;4942855;29;20455;-81
2022/08/18 00:04:29;;;;;;;;;;;21.10;75.70;;;;;;4930950;29;20005;-81
2022/08/18 00:06:55;;;;;;;;;;;21.10;75.10;;;;;;4914273;29;19993;-81
2022/08/18 00:09:21;;;;;;;;;;;21.10;75.30;;;;;;4928599;29;19950;-82
2022/08/18 00:11:46;;;;;;;;;;;21.10;75.10;;;;;;4930512;29;19914;-81
2022/08/18 00:14:14;;;;;;;;;;;21.10;75.10;;;;;;4946545;28;20524;-81
2022/08/18 00:16:39;;;;;;;;;;;21.10;74.80;;;;;;4946710;28;19917;-81
2022/08/18 00:19:05;;;;;;;;;;;21.20;74.70;;;;;;4904704;29;19911;-81
2022/08/18 00:21:31;;;;;;;;;;;21.20;74.80;;;;;;4937973;29;19919;-81
2022/08/18 00:23:57;;;;;;;;;;;21.20;74.60;;;;;;4931079;29;19919;-81
2022/08/18 00:26:22;;;;;;;;;;;21.20;74.60;;;;;;4926790;29;20440;-81
2022/08/18 00:28:48;;;;;;;;;;;21.20;74.40;;;;;;4928940;29;19923;-81
2022/08/18 00:31:14;;;;;;;;;;;21.30;74.40;;;;;;4919639;29;19914;-81
2022/08/18 00:33:39;;;;;;;;;;;21.30;74.30;;;;;;4915148;29;19915;-81
2022/08/18 00:36:05;;;;;;;;;;;21.30;74.30;;;;;;4918401;29;19966;-81
2022/08/18 00:38:30;;;;;;;;;;;21.30;74.30;;;;;;4911752;29;19915;-82
2022/08/18 00:40:56;;;;;;;;;;;21.20;74.30;;;;;;4924157;29;19977;-82
2022/08/18 00:43:26;;;;;;;;;;;21.20;74.30;;;;;;4903921;29;20532;-81
2022/08/18 00:45:52;;;;;;;;;;;21.20;74.40;;;;;;4924706;29;19942;-82
2022/08/18 00:48:17;;;;;;;;;;;21.20;74.60;;;;;;4915191;29;20324;-81
2022/08/18 00:50:54;;;;;;;;;;;21.10;74.70;;;;;;4943156;29;19919;-81
2022/08/18 00:53:26;;;;;;;;;;;21.10;74.80;;;;;;4926673;29;20002;-81
2022/08/18 00:55:52;;;;;;;;;;;21.10;75.10;;;;;;4916387;29;20002;-82
2022/08/18 00:58:22;;;;;;;;;;;21.00;75.10;;;;;;4944822;28;19942;-81
2022/08/18 01:00:49;;;;;;;;;;;21.00;75.20;;;;;;4930592;29;19966;-81
2022/08/18 01:03:16;;;;;;;;;;;21.00;76.00;;;;;;4934974;28;19915;-81
2022/08/18 01:05:49;;;;;;;;;;;21.00;75.30;;;;;;4915592;29;19922;-81
2022/08/18 01:08:15;;;;;;;;;;;20.90;75.30;;;;;;4910028;29;19917;-82
2022/08/18 01:10:42;;;;;;;;;;;20.90;75.50;;;;;;4934946;29;19931;-81
2022/08/18 01:13:07;;;;;;;;;;;20.80;75.50;;;;;;4908024;29;19911;-82
2022/08/18 01:15:34;;;;;;;;;;;20.80;75.70;;;;;;4940729;29;19925;-81
2022/08/18 01:23:38;;;;;;;;;;;20.80;76.10;;;;;;4949831;28;19958;-81
2022/08/18 01:26:03;;;;;;;;;;;20.80;76.20;;;;;;4932891;29;19923;-81
2022/08/18 01:28:30;;;;;;;;;;;20.80;76.30;;;;;;4949883;28;19918;-81
2022/08/18 01:30:57;;;;;;;;;;;20.80;76.50;;;;;;4920245;29;19990;-81
2022/08/18 01:33:25;;;;;;;;;;;20.80;76.40;;;;;;4918092;29;19965;-81
2022/08/18 01:35:52;;;;;;;;;;;20.80;76.60;;;;;;4948854;28;19934;-81
2022/08/18 01:38:19;;;;;;;;;;;20.80;76.80;;;;;;4930619;29;19950;-81
2022/08/18 01:40:45;;;;;;;;;;;20.80;76.80;;;;;;4920689;29;19911;-81
2022/08/18 01:43:12;;;;;;;;;;;20.80;76.80;;;;;;4934450;29;19911;-81
2022/08/18 01:45:38;;;;;;;;;;;20.80;76.80;;;;;;4917545;29;19906;-81
2022/08/18 01:48:04;;;;;;;;;;;20.80;77.00;;;;;;4933574;29;19921;-81
2022/08/18 01:50:33;;;;;;;;;;;20.70;76.90;;;;;;4934522;29;20319;-81
2022/08/18 01:52:58;;;;;;;;;;;20.70;76.70;;;;;;4949123;28;20335;-81
2022/08/18 01:55:27;;;;;;;;;;;20.70;76.80;;;;;;4948321;28;19910;-82
2022/08/18 01:57:53;;;;;;;;;;;20.70;76.70;;;;;;4948797;29;19914;-81
2022/08/18 02:00:19;;;;;;;;;;;20.70;76.80;;;;;;4949253;28;20364;-81
2022/08/18 02:02:45;;;;;;;;;;;20.70;77.00;;;;;;4931408;29;19947;-81
2022/08/18 02:05:15;;;;;;;;;;;20.80;77.80;;;;;;4932492;29;19907;-81
2022/08/18 02:07:40;;;;;;;;;;;20.80;78.00;;;;;;4917588;29;19918;-81
2022/08/18 02:10:08;;;;;;;;;;;20.80;79.00;;;;;;4949034;28;19919;-81
2022/08/18 02:12:34;;;;;;;;;;;20.70;79.50;;;;;;4933183;28;19918;-81
2022/08/18 02:14:59;;;;;;;;;;;20.70;79.10;;;;;;4913328;29;19919;-82
2022/08/18 02:17:25;;;;;;;;;;;20.70;79.30;;;;;;4924208;29;19928;-81
2022/08/18 02:19:50;;;;;;;;;;;20.60;80.00;;;;;;4930653;29;19914;-81
2022/08/18 02:22:17;;;;;;;;;;;20.60;79.20;;;;;;4929553;29;19922;-81
2022/08/18 02:24:43;;;;;;;;;;;20.50;79.20;;;;;;4926601;29;19946;-81
2022/08/18 02:27:10;;;;;;;;;;;20.50;79.80;;;;;;4917627;29;19915;-81
2022/08/18 02:29:36;;;;;;;;;;;20.60;79.90;;;;;;4929801;29;20336;-81
2022/08/18 02:32:02;;;;;;;;;;;20.60;79.70;;;;;;4946433;28;19918;-81
2022/08/18 02:34:28;;;;;;;;;;;20.60;79.60;;;;;;4913278;29;20006;-81
2022/08/18 02:36:53;;;;;;;;;;;20.60;80.00;;;;;;4943258;29;19918;-81
2022/08/18 02:39:19;;;;;;;;;;;20.60;79.80;;;;;;4932493;29;19914;-81
2022/08/18 02:41:45;;;;;;;;;;;20.60;80.90;;;;;;4931942;29;19970;-82
2022/08/18 02:44:11;;;;;;;;;;;20.60;81.00;;;;;;4932204;29;19915;-82
2022/08/18 02:46:37;;;;;;;;;;;20.60;80.20;;;;;;4932245;29;20085;-82
2022/08/18 02:49:03;;;;;;;;;;;20.50;80.70;;;;;;4916778;29;20005;-82
2022/08/18 02:51:29;;;;;;;;;;;20.50;81.70;;;;;;4931702;29;19970;-81
2022/08/18 02:53:58;;;;;;;;;;;20.50;81.40;;;;;;4931908;29;20387;-82
2022/08/18 02:56:24;;;;;;;;;;;20.50;81.80;;;;;;4928285;29;20419;-82
2022/08/18 02:58:52;;;;;;;;;;;20.50;82.50;;;;;;4921926;29;19910;-81
2022/08/18 03:01:21;;;;;;;;;;;20.50;82.80;;;;;;4921384;29;20016;-81
2022/08/18 03:03:48;;;;;;;;;;;20.50;83.00;;;;;;4923197;29;19911;-82
2022/08/18 03:06:14;;;;;;;;;;;20.40;82.80;;;;;;4927314;29;19914;-81
2022/08/18 03:08:40;;;;;;;;;;;20.40;83.50;;;;;;4933432;29;19911;-82
2022/08/18 03:11:06;;;;;;;;;;;20.40;83.10;;;;;;4919720;29;19910;-81
2022/08/18 03:13:32;;;;;;;;;;;20.30;83.10;;;;;;4912793;29;19918;-81
2022/08/18 03:15:58;;;;;;;;;;;20.40;83.50;;;;;;4918862;29;19915;-82
2022/08/18 03:18:24;;;;;;;;;;;20.30;83.00;;;;;;4931919;29;19914;-82
2022/08/18 03:20:50;;;;;;;;;;;20.30;83.30;;;;;;4935863;28;20291;-82
2022/08/18 03:23:15;;;;;;;;;;;20.30;83.90;;;;;;4931578;29;19921;-81
2022/08/18 03:25:42;;;;;;;;;;;20.30;84.00;;;;;;4927890;29;20413;-82
2022/08/18 03:28:08;;;;;;;;;;;20.30;84.00;;;;;;4928727;29;19954;-82
2022/08/18 03:30:34;;;;;;;;;;;20.20;84.00;;;;;;4916733;29;19972;-82
2022/08/18 03:32:59;;;;;;;;;;;20.20;84.00;;;;;;4915395;29;19911;-81
2022/08/18 03:35:25;;;;;;;;;;;20.20;83.90;;;;;;4946772;29;19914;-82
2022/08/18 03:37:51;;;;;;;;;;;20.20;83.90;;;;;;4945766;28;19914;-81
2022/08/18 03:40:16;;;;;;;;;;;20.20;84.00;;;;;;4914583;29;19915;-81
2022/08/18 03:42:42;;;;;;;;;;;20.20;84.10;;;;;;4911909;29;19926;-82
2022/08/18 03:45:08;;;;;;;;;;;20.20;84.20;;;;;;4911171;29;20409;-82
2022/08/18 03:47:34;;;;;;;;;;;20.20;83.80;;;;;;4931509;29;19954;-82
2022/08/18 03:50:00;;;;;;;;;;;20.20;84.20;;;;;;4931336;29;19915;-82
2022/08/18 03:52:25;;;;;;;;;;;20.20;84.30;;;;;;4902723;29;19915;-82
2022/08/18 03:54:51;;;;;;;;;;;20.20;84.50;;;;;;4911738;29;19915;-82
2022/08/18 03:57:17;;;;;;;;;;;20.20;84.30;;;;;;4927827;29;19946;-81
2022/08/18 03:59:43;;;;;;;;;;;20.20;83.90;;;;;;4945101;29;19919;-82
2022/08/18 04:02:10;;;;;;;;;;;20.30;84.10;;;;;;4927065;29;19971;-82
2022/08/18 04:04:36;;;;;;;;;;;20.20;84.10;;;;;;4930572;29;19911;-81
2022/08/18 04:07:04;;;;;;;;;;;20.30;84.30;;;;;;4932335;29;19915;-81
2022/08/18 04:09:31;;;;;;;;;;;20.30;84.40;;;;;;4930975;29;19938;-82
2022/08/18 04:11:58;;;;;;;;;;;20.30;85.00;;;;;;4925584;29;19911;-82
2022/08/18 04:14:24;;;;;;;;;;;20.30;84.10;;;;;;4928888;29;19919;-82
2022/08/18 04:16:51;;;;;;;;;;;20.30;83.90;;;;;;4915265;29;20009;-82
2022/08/18 04:19:17;;;;;;;;;;;20.30;84.20;;;;;;4946809;28;19946;-82
2022/08/18 04:21:43;;;;;;;;;;;20.30;84.10;;;;;;4931376;29;19915;-82
2022/08/18 04:24:10;;;;;;;;;;;20.30;83.80;;;;;;4928027;29;19927;-81
2022/08/18 04:26:37;;;;;;;;;;;20.40;84.10;;;;;;4926338;29;19939;-82
2022/08/18 04:29:03;;;;;;;;;;;20.40;84.20;;;;;;4912067;29;19917;-82
2022/08/18 04:31:29;;;;;;;;;;;20.40;84.80;;;;;;4921889;29;20544;-81
2022/08/18 04:33:56;;;;;;;;;;;20.40;85.10;;;;;;4928720;29;19975;-82
2022/08/18 04:36:22;;;;;;;;;;;20.40;84.80;;;;;;4946095;28;19946;-82
2022/08/18 04:38:48;;;;;;;;;;;20.50;84.90;;;;;;4939870;28;19911;-81
2022/08/18 04:41:14;;;;;;;;;;;20.40;85.30;;;;;;4914579;29;19961;-81
2022/08/18 04:43:40;;;;;;;;;;;20.50;85.30;;;;;;4895920;29;20404;-82
2022/08/18 04:46:06;;;;;;;;;;;20.50;85.80;;;;;;4934482;29;19911;-82
2022/08/18 04:48:32;;;;;;;;;;;20.50;86.00;;;;;;4930683;29;19915;-82
2022/08/18 04:51:06;;;;;;;;;;;20.50;85.10;;;;;;4917341;29;19910;-81
2022/08/18 04:53:45;;;;;;;;;;;20.50;84.80;;;;;;4911559;29;20288;-81
2022/08/18 04:56:14;;;;;;;;;;;20.50;84.50;;;;;;4937741;29;19977;-81
2022/08/18 04:58:39;;;;;;;;;;;20.50;84.10;;;;;;4943965;28;20376;-81
2022/08/18 05:01:05;;;;;;;;;;;20.50;84.40;;;;;;4902429;29;19915;-82
2022/08/18 05:03:31;;;;;;;;;;;20.50;84.00;;;;;;4925709;29;19915;-81
2022/08/18 05:05:58;;;;;;;;;;;20.60;83.90;;;;;;4917657;29;19915;-81
2022/08/18 05:08:24;;;;;;;;;;;20.60;83.90;;;;;;4935588;29;20013;-81
2022/08/18 05:10:53;;;;;;;;;;;20.60;85.10;;;;;;4941931;28;20311;-82
2022/08/18 05:13:19;;;;;;;;;;;20.60;85.20;;;;;;4930937;29;20384;-81
2022/08/18 05:15:51;;;;;;;;;;;20.60;85.30;;;;;;4923089;29;19918;-81
2022/08/18 05:18:19;;;;;;;;;;;20.60;84.70;;;;;;4934189;29;19918;-81
2022/08/18 05:20:44;;;;;;;;;;;20.50;85.20;;;;;;4946374;28;19915;-82
2022/08/18 05:23:10;;;;;;;;;;;20.60;85.90;;;;;;4949266;28;19918;-82
2022/08/18 05:25:38;;;;;;;;;;;20.60;86.50;;;;;;4947658;28;20467;-82
2022/08/18 05:28:04;;;;;;;;;;;20.60;86.40;;;;;;4950069;28;19927;-82
2022/08/18 05:30:30;;;;;;;;;;;20.60;86.20;;;;;;4949481;28;20292;-81
2022/08/18 05:32:57;;;;;;;;;;;20.60;85.50;;;;;;4933304;29;19961;-82
2022/08/18 05:35:25;;;;;;;;;;;20.60;85.10;;;;;;4932007;28;19926;-81
2022/08/18 05:37:51;;;;;;;;;;;20.60;87.60;;;;;;4933947;29;20370;-81
2022/08/18 05:40:20;;;;;;;;;;;20.60;89.00;;;;;;4934901;29;19998;-82
2022/08/18 05:42:47;;;;;;;;;;;20.60;90.10;;;;;;4929948;29;19915;-81
2022/08/18 05:45:15;;;;;;;;;;;20.60;89.20;;;;;;4930470;29;19922;-82
2022/08/18 05:47:41;;;;;;;;;;;20.50;88.80;;;;;;4930578;29;19915;-82
2022/08/18 05:50:09;;;;;;;;;;;20.40;88.50;;;;;;4898757;29;19917;-82
2022/08/18 05:52:53;;;;;;;;;;;20.30;89.50;;;;;;4933829;29;20009;-81
2022/08/18 05:58:30;;;;;;;;;;;20.20;90.10;;;;;;4933181;29;19914;-82
2022/08/18 06:00:59;;;;;;;;;;;20.20;90.90;;;;;;4932459;29;19914;-81
2022/08/18 06:03:35;;;;;;;;;;;20.10;90.50;;;;;;4929754;29;19910;-81
2022/08/18 06:06:10;;;;;;;;;;;20.10;90.60;;;;;;4932008;29;19911;-81
2022/08/18 06:08:39;;;;;;;;;;;20.00;91.90;;;;;;4913832;29;19918;-81
2022/08/18 06:11:05;;;;;;;;;;;20.00;92.60;;;;;;4920793;29;20009;-82
2022/08/18 06:13:35;;;;;;;;;;;19.90;93.30;;;;;;4949054;29;20065;-81
2022/08/18 06:16:06;;;;;;;;;;;19.80;94.10;;;;;;4929156;29;19911;-81
2022/08/18 06:18:32;;;;;;;;;;;19.80;95.50;;;;;;4944677;29;19917;-81
2022/08/18 06:21:08;;;;;;;;;;;19.70;97.10;;;;;;4926559;29;19911;-81
2022/08/18 06:23:38;;;;;;;;;;;19.60;99.20;;;;;;4948916;29;19914;-80
2022/08/18 06:26:10;;;;;;;;;;;19.50;99.90;;;;;;4932138;29;20390;-81
2022/08/18 06:28:56;;;;;;;;;;;19.40;99.90;;;;;;4933548;29;19933;-81
2022/08/18 06:31:28;;;;;;;;;;;19.30;99.90;;;;;;4912006;29;20291;-80
2022/08/18 06:34:01;;;;;;;;;;;19.30;99.90;;;;;;4932648;29;19911;-81
2022/08/18 06:36:30;;;;;;;;;;;19.20;99.90;;;;;;4932280;29;20276;-80
2022/08/18 06:39:05;;;;;;;;;;;19.20;99.90;;;;;;4933882;29;19907;-81
2022/08/18 06:41:40;;;;;;;;;;;19.20;99.90;;;;;;4937556;29;19914;-81
2022/08/18 06:44:10;;;;;;;;;;;19.20;99.90;;;;;;4933778;29;20283;-82
2022/08/18 06:46:52;;;;;;;;;;;19.20;99.90;;;;;;4932368;29;19986;-81
2022/08/18 06:49:27;;;;;;;;;;;19.30;99.90;;;;;;4931852;29;19962;-81
2022/08/18 06:51:52;;;;;;;;;;;19.30;99.90;;;;;;4932767;29;19911;-81
2022/08/18 06:54:18;;;;;;;;;;;19.40;99.90;;;;;;4914228;29;19918;-82
2022/08/18 06:56:48;;;;;;;;;;;19.50;99.90;;;;;;4941586;29;19915;-81
2022/08/18 06:59:14;;;;;;;;;;;19.50;99.90;;;;;;4928882;29;20022;-81
2022/08/18 07:01:40;;;;;;;;;;;19.40;99.90;;;;;;4940505;29;20498;-81
2022/08/18 07:04:06;;;;;;;;;;;19.40;99.90;;;;;;4937496;28;19911;-82
2022/08/18 07:06:31;;;;;;;;;;;19.40;99.90;;;;;;4939229;29;20392;-81
2022/08/18 07:09:17;;;;;;;;;;;19.40;99.90;;;;;;4920441;29;19958;-81
2022/08/18 07:11:56;;;;;;;;;;;19.40;99.90;;;;;;4924910;29;19910;-81
2022/08/18 07:14:24;;;;;;;;;;;19.30;99.90;;;;;;4912293;29;19946;-82
2022/08/18 07:17:04;;;;;;;;;;;19.30;99.90;;;;;;4927185;29;19918;-81
2022/08/18 07:19:30;;;;;;;;;;;19.30;99.90;;;;;;4947535;28;20002;-80
2022/08/18 07:22:10;;;;;;;;;;;19.30;99.90;;;;;;4947080;28;19915;-81
2022/08/18 07:24:47;;;;;;;;;;;19.30;99.90;;;;;;4931120;29;20009;-81
2022/08/18 07:27:21;;;;;;;;;;;19.40;99.90;;;;;;4932971;29;19911;-80
2022/08/18 07:30:08;;;;;;;;;;;19.40;99.90;;;;;;4947832;28;19911;-81
2022/08/18 07:32:42;;;;;;;;;;;19.60;99.90;;;;;;4929113;29;20439;-82
2022/08/18 07:35:08;;;;;;;;;;;19.60;99.90;;;;;;4928134;29;20274;-81
2022/08/18 07:37:55;;;;;;;;;;;19.70;99.90;;;;;;4932817;29;19911;-81
2022/08/18 07:40:26;;;;;;;;;;;19.70;99.90;;;;;;4944863;29;19910;-81
2022/08/18 07:43:04;;;;;;;;;;;19.80;99.90;;;;;;4921219;29;20276;-81
2022/08/18 07:45:35;;;;;;;;;;;20.00;99.90;;;;;;4930256;29;20555;-81
2022/08/18 07:48:12;;;;;;;;;;;20.10;99.90;;;;;;4947152;28;20291;-82
2022/08/18 07:50:44;;;;;;;;;;;20.30;99.90;;;;;;4943637;29;19915;-82
2022/08/18 07:53:34;;;;;;;;;;;20.40;99.90;;;;;;4946813;28;19934;-81
2022/08/18 07:56:02;;;;;;;;;;;20.50;99.90;;;;;;4930445;29;20005;-82
2022/08/18 07:58:34;;;;;;;;;;;20.50;99.90;;;;;;4947169;28;19918;-81
2022/08/18 08:01:17;;;;;;;;;;;20.50;99.90;;;;;;4927678;29;20455;-82
2022/08/18 08:03:57;;;;;;;;;;;20.40;99.90;;;;;;4947392;28;20368;-81
2022/08/18 08:06:31;;;;;;;;;;;20.50;99.90;;;;;;4946687;28;19926;-81
2022/08/18 08:08:57;;;;;;;;;;;20.40;99.90;;;;;;4931337;29;19910;-81
2022/08/18 08:11:32;;;;;;;;;;;20.40;99.90;;;;;;4927644;29;19922;-81
2022/08/18 08:14:10;;;;;;;;;;;20.40;99.90;;;;;;4928023;29;20433;-81
2022/08/18 08:16:43;;;;;;;;;;;20.40;99.90;;;;;;4939010;29;20352;-81
2022/08/18 08:19:24;;;;;;;;;;;20.40;99.90;;;;;;4932472;29;19911;-82
2022/08/18 08:21:58;;;;;;;;;;;20.70;99.90;;;;;;4941489;29;19915;-81
2022/08/18 08:24:29;;;;;;;;;;;21.00;99.90;;;;;;4911842;29;19911;-82
2022/08/18 08:27:01;;;;;;;;;;;21.20;99.90;;;;;;4946815;28;19950;-83
2022/08/18 08:29:46;;;;;;;;;;;21.30;99.90;;;;;;4947912;28;19914;-81
2022/08/18 08:32:20;;;;;;;;;;;21.40;99.90;;;;;;4933633;29;19911;-81
2022/08/18 08:34:49;;;;;;;;;;;21.40;99.90;;;;;;4950161;28;19910;-82
2022/08/18 08:37:23;;;;;;;;;;;21.50;99.90;;;;;;4937075;29;19941;-81
2022/08/18 08:39:53;;;;;;;;;;;21.50;99.90;;;;;;4953325;28;19914;-81
2022/08/18 08:42:27;;;;;;;;;;;21.50;99.90;;;;;;4934157;29;19946;-81
2022/08/18 08:44:59;;;;;;;;;;;21.50;99.90;;;;;;4917563;29;19925;-81
2022/08/18 08:47:31;;;;;;;;;;;21.50;99.90;;;;;;4935831;29;19911;-81
2022/08/18 08:50:01;;;;;;;;;;;21.60;99.90;;;;;;4936846;29;19915;-82
2022/08/18 08:52:43;;;;;;;;;;;21.60;99.90;;;;;;4920870;29;19969;-81
2022/08/18 08:55:13;;;;;;;;;;;21.60;99.90;;;;;;4921442;29;19918;-82
2022/08/18 08:57:41;;;;;;;;;;;21.50;99.90;;;;;;4952868;28;20442;-81
2022/08/18 09:00:09;;;;;;;;;;;21.50;99.90;;;;;;4934119;29;19911;-81
2022/08/18 09:02:53;;;;;;;;;;;21.60;99.90;;;;;;4937399;29;20435;-81
2022/08/18 09:05:24;;;;;;;;;;;21.60;99.90;;;;;;4929662;29;19918;-81
2022/08/18 09:08:09;;;;;;;;;;;21.80;99.90;;;;;;4921244;29;19918;-82
2022/08/18 09:10:39;;;;;;;;;;;22.10;99.90;;;;;;4922144;29;19915;-81
2022/08/18 09:13:43;;;;;;;;;;;22.30;99.90;;;;;;4952606;29;20018;-82
2022/08/18 09:16:18;;;;;;;;;;;22.60;99.90;;;;;;4939800;29;20005;-81
2022/08/18 09:18:50;;;;;;;;;;;22.80;99.90;;;;;;4935095;29;20026;-82
2022/08/18 09:21:19;;;;;;;;;;;23.10;99.90;;;;;;4941931;29;19910;-82
2022/08/18 09:23:45;;;;;;;;;;;23.20;99.90;;;;;;4936963;29;19918;-82
2022/08/18 09:26:44;;;;;;;;;;;23.40;99.90;;;;;;4952800;29;19954;-81
2022/08/18 09:29:41;;;;;;;;;;;23.50;99.90;;;;;;4958174;28;19911;-82
2022/08/18 09:32:19;;;;;;;;;;;23.50;99.00;;;;;;4948597;29;20414;-83
2022/08/18 09:35:03;;;;;;;;;;;23.60;97.90;;;;;;4945570;28;20001;-82
2022/08/18 09:37:32;;;;;;;;;;;23.70;97.00;;;;;;4952637;29;19910;-82
2022/08/18 09:43:09;;;;;;;;;;;23.80;97.20;;;;;;4930480;29;19915;-83
2022/08/18 09:45:38;;;;;;;;;;;23.90;96.00;;;;;;4918712;29;19942;-82
2022/08/18 09:48:04;;;;;;;;;;;24.00;95.80;;;;;;4934262;29;19938;-83
2022/08/18 09:50:36;;;;;;;;;;;24.00;95.00;;;;;;4934412;29;19911;-83
2022/08/18 09:53:30;;;;;;;;;;;24.10;95.00;;;;;;4949100;28;19915;-81
2022/08/18 09:55:56;;;;;;;;;;;24.20;95.80;;;;;;4919650;29;20307;-82
2022/08/18 09:58:25;;;;;;;;;;;24.20;96.00;;;;;;4934508;29;20468;-82
2022/08/18 10:01:23;;;;;;;;;;;24.40;95.10;;;;;;4946593;29;20439;-82
2022/08/18 10:04:08;;;;;;;;;;;24.60;94.60;;;;;;4941613;29;20272;-81
2022/08/18 10:06:36;;;;;;;;;;;24.70;93.70;;;;;;4946675;29;20295;-82
2022/08/18 10:09:05;;;;;;;;;;;24.70;93.90;;;;;;4940655;29;20339;-83
2022/08/18 10:11:49;;;;;;;;;;;24.70;94.80;;;;;;4940556;29;19917;-83
2022/08/18 10:14:29;;;;;;;;;;;24.60;94.20;;;;;;4917594;29;19911;-83
2022/08/18 10:17:01;;;;;;;;;;;24.60;93.10;;;;;;4932840;29;19910;-83
2022/08/18 10:19:33;;;;;;;;;;;24.60;93.50;;;;;;4933829;29;19914;-82
2022/08/18 10:21:58;;;;;;;;;;;24.50;93.00;;;;;;4933010;29;19915;-84
2022/08/18 10:24:28;;;;;;;;;;;24.50;93.10;;;;;;4934099;29;19925;-83
2022/08/18 10:26:54;;;;;;;;;;;24.50;93.30;;;;;;4928561;29;19919;-83
2022/08/18 10:29:26;;;;;;;;;;;24.50;92.50;;;;;;4949236;28;20276;-82
2022/08/18 10:31:55;;;;;;;;;;;24.50;92.70;;;;;;4945828;29;19918;-82
2022/08/18 10:34:40;;;;;;;;;;;24.60;92.20;;;;;;4944697;29;19918;-82
2022/08/18 10:37:14;;;;;;;;;;;24.60;92.70;;;;;;4949133;28;19911;-82
2022/08/18 10:39:40;;;;;;;;;;;24.60;92.20;;;;;;4949463;28;20009;-82
2022/08/18 10:42:09;;;;;;;;;;;24.50;91.80;;;;;;4936119;29;19911;-82
2022/08/18 10:44:39;;;;;;;;;;;24.60;91.20;;;;;;4931480;29;19958;-83
2022/08/18 10:47:05;;;;;;;;;;;24.40;91.50;;;;;;4932327;29;19911;-82
2022/08/18 10:49:32;;;;;;;;;;;24.50;91.80;;;;;;4932797;29;19922;-83
2022/08/18 10:52:00;;;;;;;;;;;24.50;92.10;;;;;;4929178;29;19915;-81
2022/08/18 10:54:41;;;;;;;;;;;24.50;92.10;;;;;;4929017;29;20912;-83
2022/08/18 10:57:26;;;;;;;;;;;24.60;91.90;;;;;;4945697;29;19915;-83
2022/08/18 11:00:10;;;;;;;;;;;24.70;91.70;;;;;;4929863;29;20014;-81
2022/08/18 11:02:45;;;;;;;;;;;24.70;91.70;;;;;;4914513;29;19919;-81
2022/08/18 11:05:13;;;;;;;;;;;24.90;91.30;;;;;;4932193;29;19911;-81
2022/08/18 11:07:42;;;;;;;;;;;24.90;91.50;;;;;;4932588;29;19914;-81
2022/08/18 11:10:17;;;;;;;;;;;25.00;90.80;;;;;;4948266;29;19915;-84
2022/08/18 11:12:46;;;;;;;;;;;25.10;91.60;;;;;;4931841;29;19961;-82
2022/08/18 11:15:19;;;;;;;;;;;25.10;91.00;;;;;;4931090;29;19957;-82
2022/08/18 11:18:11;;;;;;;;;;;25.20;92.30;;;;;;4916756;29;19910;-81
2022/08/18 11:20:39;;;;;;;;;;;25.20;91.10;;;;;;4916161;29;19918;-82
2022/08/18 11:23:10;;;;;;;;;;;25.30;90.60;;;;;;4947979;28;19985;-82
2022/08/18 11:25:37;;;;;;;;;;;25.40;90.10;;;;;;4930706;28;20093;-84
2022/08/18 11:28:13;;;;;;;;;;;25.50;89.80;;;;;;4946865;29;19915;-82
2022/08/18 11:30:40;;;;;;;;;;;25.60;88.30;;;;;;4932817;29;19941;-81
2022/08/18 11:33:06;;;;;;;;;;;25.60;88.40;;;;;;4925645;29;20384;-81
2022/08/18 11:35:55;;;;;;;;;;;25.60;88.90;;;;;;4929617;29;19921;-83
2022/08/18 11:38:21;;;;;;;;;;;25.70;87.80;;;;;;4948124;28;20380;-82
2022/08/18 11:40:53;;;;;;;;;;;25.90;87.50;;;;;;4940432;29;19914;-82
2022/08/18 11:43:27;;;;;;;;;;;26.00;86.30;;;;;;4913866;29;19914;-83
2022/08/18 11:45:58;;;;;;;;;;;26.10;84.90;;;;;;4905048;29;20332;-82
2022/08/18 11:48:26;;;;;;;;;;;26.20;84.30;;;;;;4928483;29;19915;-82
2022/08/18 11:50:55;;;;;;;;;;;26.20;84.70;;;;;;4927184;29;20552;-82
2022/08/18 11:53:33;;;;;;;;;;;26.30;83.90;;;;;;4948113;28;20488;-82
2022/08/18 11:56:13;;;;;;;;;;;26.30;85.50;;;;;;4947806;29;19914;-81
2022/08/18 11:58:44;;;;;;;;;;;26.50;84.10;;;;;;4912464;29;19911;-83
2022/08/18 12:01:31;;;;;;;;;;;26.60;82.60;;;;;;4936929;29;19911;-82
2022/08/18 12:04:17;;;;;;;;;;;26.70;80.80;;;;;;4935699;29;20273;-83
2022/08/18 12:06:58;;;;;;;;;;;26.80;80.90;;;;;;4924347;29;19943;-82
2022/08/18 12:09:29;;;;;;;;;;;26.90;80.30;;;;;;4931346;29;19915;-81
2022/08/18 12:11:57;;;;;;;;;;;27.00;79.10;;;;;;4932465;29;19926;-82
2022/08/18 12:14:25;;;;;;;;;;;27.00;77.30;;;;;;4930928;29;19910;-83
2022/08/18 12:16:51;;;;;;;;;;;26.90;79.40;;;;;;4947259;29;19914;-81
2022/08/18 12:19:17;;;;;;;;;;;27.00;78.30;;;;;;4915626;29;19913;-82
2022/08/18 12:21:49;;;;;;;;;;;27.00;78.80;;;;;;4914954;29;19977;-82
2022/08/18 12:24:20;;;;;;;;;;;27.10;77.60;;;;;;4947287;28;19917;-81
2022/08/18 12:26:46;;;;;;;;;;;27.20;78.10;;;;;;4944078;28;19915;-82
2022/08/18 12:29:12;;;;;;;;;;;27.20;77.80;;;;;;4929322;29;19918;-82
2022/08/18 12:31:38;;;;;;;;;;;27.30;78.40;;;;;;4924102;29;20284;-83
2022/08/18 12:34:04;;;;;;;;;;;27.50;77.20;;;;;;4913478;29;19914;-84
2022/08/18 12:36:30;;;;;;;;;;;27.50;77.00;;;;;;4931102;29;20362;-83
2022/08/18 12:38:56;;;;;;;;;;;27.50;76.90;;;;;;4930536;29;20755;-82
2022/08/18 12:41:22;;;;;;;;;;;27.50;76.80;;;;;;4946665;29;19993;-82
2022/08/18 12:43:47;;;;;;;;;;;27.50;75.80;;;;;;4930021;29;20291;-82
2022/08/18 12:46:13;;;;;;;;;;;27.50;75.20;;;;;;4914967;29;19918;-83
2022/08/18 12:48:39;;;;;;;;;;;27.50;75.20;;;;;;4928127;29;19919;-82
2022/08/18 12:51:05;;;;;;;;;;;27.40;75.80;;;;;;4933847;29;19926;-82
2022/08/18 12:53:31;;;;;;;;;;;27.40;76.00;;;;;;4930558;29;19919;-82
2022/08/18 12:55:57;;;;;;;;;;;27.40;75.70;;;;;;4946297;28;19998;-82
2022/08/18 12:58:23;;;;;;;;;;;27.30;75.30;;;;;;4915632;29;20477;-83
2022/08/18 13:00:48;;;;;;;;;;;27.30;75.20;;;;;;4946312;28;20415;-84
2022/08/18 13:03:14;;;;;;;;;;;27.30;74.70;;;;;;4932576;29;19938;-82
2022/08/18 13:05:40;;;;;;;;;;;27.30;74.70;;;;;;4946913;28;20320;-82
2022/08/18 13:08:08;;;;;;;;;;;27.20;75.40;;;;;;4931031;29;19918;-82
2022/08/18 13:10:34;;;;;;;;;;;27.20;75.30;;;;;;4930930;29;20009;-82
2022/08/18 13:13:00;;;;;;;;;;;27.20;75.10;;;;;;4930652;29;20010;-84
2022/08/18 13:15:27;;;;;;;;;;;27.20;75.50;;;;;;4913647;29;19922;-83
2022/08/18 13:17:53;;;;;;;;;;;27.20;75.60;;;;;;4922953;29;19915;-81
2022/08/18 13:20:19;;;;;;;;;;;27.30;75.70;;;;;;4918234;29;20006;-82
2022/08/18 13:22:45;;;;;;;;;;;27.40;75.30;;;;;;4950385;28;19926;-83
2022/08/18 13:25:13;;;;;;;;;;;27.50;74.60;;;;;;4918044;29;19910;-81
2022/08/18 13:27:39;;;;;;;;;;;27.60;74.40;;;;;;4950538;28;20368;-82
2022/08/18 13:30:08;;;;;;;;;;;27.60;74.90;;;;;;4934609;29;19913;-83
2022/08/18 13:32:33;;;;;;;;;;;27.70;74.00;;;;;;4932411;29;19915;-82
2022/08/18 13:35:00;;;;;;;;;;;27.60;73.40;;;;;;4938120;28;19962;-84
2022/08/18 13:37:27;;;;;;;;;;;27.70;74.30;;;;;;4946715;29;19918;-82
2022/08/18 13:39:53;;;;;;;;;;;27.70;73.90;;;;;;4934486;28;19949;-83
2022/08/18 13:42:18;;;;;;;;;;;27.70;73.50;;;;;;4933477;29;19915;-83
2022/08/18 13:44:44;;;;;;;;;;;27.70;75.50;;;;;;4927013;29;19915;-83
2022/08/18 13:47:10;;;;;;;;;;;27.70;75.70;;;;;;4932985;29;20425;-83
2022/08/18 13:49:36;;;;;;;;;;;27.80;74.10;;;;;;4933554;29;19914;-83
2022/08/18 13:52:01;;;;;;;;;;;27.80;73.70;;;;;;4924356;29;19915;-83
2022/08/18 13:54:28;;;;;;;;;;;27.80;72.80;;;;;;4929933;29;19974;-83
2022/08/18 13:56:55;;;;;;;;;;;27.70;72.90;;;;;;4944512;29;19994;-83
2022/08/18 13:59:21;;;;;;;;;;;27.70;73.90;;;;;;4932405;29;20387;-82
2022/08/18 14:01:47;;;;;;;;;;;27.60;74.80;;;;;;4933872;29;19926;-83
2022/08/18 14:04:14;;;;;;;;;;;27.60;74.30;;;;;;4906666;29;19918;-83
2022/08/18 14:06:39;;;;;;;;;;;27.50;74.30;;;;;;4950977;28;19997;-83
2022/08/18 14:09:05;;;;;;;;;;;27.50;74.00;;;;;;4938775;29;20564;-83
2022/08/18 14:11:31;;;;;;;;;;;27.50;74.80;;;;;;4922457;29;19922;-83
2022/08/18 14:13:57;;;;;;;;;;;27.50;73.90;;;;;;4914731;29;19911;-84
2022/08/18 14:16:23;;;;;;;;;;;27.50;74.10;;;;;;4928513;29;19917;-83
2022/08/18 14:27:09;;;;;;;;;;;27.60;72.60;;;;;;4949608;28;19966;-82
2022/08/18 14:29:35;;;;;;;;;;;27.50;72.70;;;;;;4949653;29;19914;-83
2022/08/18 14:32:01;;;;;;;;;;;27.40;72.70;;;;;;4927216;29;19915;-83
2022/08/18 14:34:26;;;;;;;;;;;27.40;72.70;;;;;;4925785;29;19921;-83
2022/08/18 14:36:52;;;;;;;;;;;27.20;73.50;;;;;;4902411;29;19960;-83
2022/08/18 14:39:18;;;;;;;;;;;27.20;73.50;;;;;;4949587;29;19915;-84
2022/08/18 14:41:43;;;;;;;;;;;27.10;74.30;;;;;;4929351;29;19929;-83
2022/08/18 14:44:12;;;;;;;;;;;27.10;74.60;;;;;;4927082;29;19911;-84
2022/08/18 14:46:38;;;;;;;;;;;27.10;74.70;;;;;;4941451;29;20648;-84
2022/08/18 14:49:04;;;;;;;;;;;27.00;74.00;;;;;;4945348;28;19967;-84
2022/08/18 14:51:30;;;;;;;;;;;27.00;75.00;;;;;;4930360;29;19915;-83